Time;durP1;ratioP1;P1;durP2;ratioP2;P2;SDS_P1;SDS_P2;PMS_P1;PMS_P2;Temp;Humidity;BMP_temperature;BMP_pressure;BME280_temperature;BME280_humidity;BME280_pressure;Samples;Min_cycle;Max_cycle;Signal;HPM_P1;HPM_P2
2023/03/10 00:01:21;;;;;;;18.70;16.77;;;5.50;99.90;;;5.64;100.00;98644.69;5033329;28;20107;-67
2023/03/10 00:03:52;;;;;;;18.37;16.57;;;5.60;99.90;;;5.71;100.00;98638.41;5034488;28;20124;-67
2023/03/10 00:06:24;;;;;;;17.35;15.55;;;5.60;99.90;;;5.73;100.00;98639.25;5032966;28;20054;-67
2023/03/10 00:08:53;;;;;;;17.03;15.33;;;5.70;99.90;;;5.70;100.00;98630.59;5034420;28;20505;-67
2023/03/10 00:11:22;;;;;;;17.27;15.57;;;5.70;99.90;;;5.78;100.00;98636.53;5034297;28;20049;-68
2023/03/10 00:13:51;;;;;;;17.27;15.57;;;5.70;99.90;;;5.80;100.00;98640.00;5034404;28;20543;-67
2023/03/10 00:16:23;;;;;;;18.17;16.33;;;5.70;99.90;;;5.65;100.00;98637.69;5034402;28;20080;-68
2023/03/10 00:18:54;;;;;;;17.80;15.90;;;5.60;99.90;;;5.62;100.00;98635.13;5034180;28;20571;-68
2023/03/10 00:21:26;;;;;;;17.30;15.60;;;5.60;99.90;;;5.59;100.00;98633.44;5033366;28;20053;-67
2023/03/10 00:23:54;;;;;;;17.63;15.75;;;5.50;99.90;;;5.70;100.00;98626.22;5034193;28;20041;-68
2023/03/10 00:26:26;;;;;;;18.47;16.47;;;5.60;99.90;;;5.64;100.00;98620.22;5034276;28;20148;-68
2023/03/10 00:28:55;;;;;;;17.27;15.47;;;5.60;99.90;;;5.64;100.00;98618.47;5032997;28;20049;-68
2023/03/10 00:31:27;;;;;;;19.03;16.80;;;5.60;99.90;;;5.48;100.00;98612.69;5033121;28;20079;-68
2023/03/10 00:33:58;;;;;;;17.40;15.50;;;5.50;99.90;;;5.28;100.00;98591.25;5033774;28;20045;-68
2023/03/10 00:36:28;;;;;;;17.47;15.63;;;5.40;99.90;;;5.45;100.00;98610.13;5033790;28;20107;-68
2023/03/10 00:38:59;;;;;;;18.77;16.53;;;5.40;99.90;;;5.39;100.00;98588.41;5033612;28;20046;-67
2023/03/10 00:41:30;;;;;;;21.77;17.17;;;5.50;99.90;;;5.55;100.00;98621.28;5033898;28;20041;-67
2023/03/10 00:44:00;;;;;;;23.40;18.23;;;5.50;99.90;;;5.35;100.00;98613.84;5031940;28;20053;-68
2023/03/10 00:46:31;;;;;;;20.15;16.67;;;5.40;99.90;;;5.40;100.00;98606.72;5033208;28;20068;-68
2023/03/10 00:49:02;;;;;;;22.13;18.73;;;5.40;99.90;;;5.53;100.00;98610.81;5032304;28;20079;-68
2023/03/10 00:51:30;;;;;;;19.58;17.40;;;5.50;99.90;;;5.30;100.00;98609.59;5032037;28;20060;-68
2023/03/10 00:54:00;;;;;;;19.23;17.17;;;5.40;99.90;;;5.19;100.00;98608.91;5031915;28;20051;-68
2023/03/10 00:56:30;;;;;;;20.73;18.13;;;5.30;99.90;;;4.99;100.00;98590.09;5033240;28;20055;-68
2023/03/10 00:59:00;;;;;;;19.20;17.00;;;5.20;99.90;;;5.41;100.00;98612.84;5032822;28;20415;-68
2023/03/10 01:01:32;;;;;;;20.40;17.67;;;5.30;99.90;;;5.06;100.00;98571.63;5033202;28;20045;-67
2023/03/10 01:04:06;;;;;;;20.07;17.87;;;5.30;99.90;;;5.07;100.00;98559.41;5031705;28;20424;-67
2023/03/10 01:06:35;;;;;;;21.37;19.07;;;5.30;99.90;;;5.35;100.00;98600.72;5031978;28;20045;-67
2023/03/10 01:09:05;;;;;;;21.50;18.33;;;5.30;99.90;;;4.75;100.00;98491.94;5031590;28;20073;-67
2023/03/10 01:11:34;;;;;;;21.75;18.80;;;5.30;99.90;;;5.06;100.00;98573.38;5033031;28;20037;-67
2023/03/10 01:14:07;;;;;;;22.40;18.47;;;5.20;99.90;;;5.10;100.00;98578.53;5032665;28;20048;-67
2023/03/10 01:16:36;;;;;;;21.20;18.97;;;5.10;99.90;;;5.29;100.00;98584.25;5033109;28;20042;-67
2023/03/10 01:19:05;;;;;;;21.07;18.33;;;5.20;99.90;;;5.34;100.00;98587.66;5032722;28;20484;-67
2023/03/10 01:21:37;;;;;;;21.08;17.95;;;5.20;99.90;;;5.26;100.00;98576.47;5032759;28;20049;-67
2023/03/10 01:24:07;;;;;;;22.67;19.40;;;5.20;99.90;;;5.12;100.00;98568.88;5031583;28;20049;-67
2023/03/10 01:26:36;;;;;;;21.15;18.55;;;5.30;99.90;;;5.43;100.00;98582.22;5032610;28;20120;-68
2023/03/10 01:29:04;;;;;;;20.13;17.63;;;5.40;99.90;;;5.48;100.00;98573.38;5031560;28;20041;-67
2023/03/10 01:31:33;;;;;;;19.93;17.40;;;5.40;99.90;;;5.47;100.00;98573.41;5031497;28;20045;-68
2023/03/10 01:34:02;;;;;;;20.50;18.30;;;5.40;99.90;;;5.08;100.00;98498.25;5031143;28;20048;-67
2023/03/10 01:36:32;;;;;;;19.63;17.53;;;5.50;99.90;;;5.61;100.00;98576.59;5031179;28;20103;-68
2023/03/10 01:39:00;;;;;;;21.30;18.48;;;5.50;99.90;;;5.41;100.00;98557.81;5031288;28;20469;-68
2023/03/10 01:41:29;;;;;;;19.77;17.67;;;5.40;99.90;;;5.37;100.00;98554.41;5032596;28;20056;-68
2023/03/10 01:43:59;;;;;;;19.10;17.13;;;5.40;99.90;;;5.53;100.00;98568.03;5031073;28;20528;-67
2023/03/10 01:46:49;;;;;;;20.40;18.20;;;5.50;99.90;;;5.17;100.00;98545.19;5031300;28;20045;-68
2023/03/10 01:49:37;;;;;;;19.57;17.27;;;5.20;99.90;;;5.41;100.00;98542.09;5031294;28;20403;-67
2023/03/10 01:52:12;;;;;;;22.73;17.97;;;5.30;99.90;;;5.41;100.00;98540.34;5032481;28;20053;-68
2023/03/10 01:54:49;;;;;;;23.00;18.37;;;5.40;99.90;;;5.57;100.00;98555.72;5032445;28;20046;-68
2023/03/10 01:57:23;;;;;;;20.67;18.43;;;5.50;99.90;;;5.16;100.00;98539.13;5031140;28;20475;-68
2023/03/10 01:59:53;;;;;;;20.93;18.17;;;5.30;99.90;;;5.05;100.00;98522.72;5032182;28;20049;-67
2023/03/10 02:02:25;;;;;;;21.93;19.23;;;5.10;99.90;;;4.92;100.00;98518.63;5030972;28;20084;-67
2023/03/10 02:04:55;;;;;;;23.00;19.97;;;5.00;99.90;;;4.88;100.00;98521.38;5031147;28;20053;-67
2023/03/10 02:07:29;;;;;;;22.07;18.70;;;4.90;99.90;;;5.10;100.00;98517.41;5030737;28;20084;-67
2023/03/10 02:09:57;;;;;;;22.80;19.13;;;5.00;99.90;;;5.11;100.00;98513.91;5030989;28;20051;-68
2023/03/10 02:12:26;;;;;;;22.20;19.07;;;5.00;99.90;;;4.97;100.00;98508.09;5031036;28;20053;-68
2023/03/10 02:14:54;;;;;;;22.70;19.80;;;5.00;99.90;;;4.97;100.00;98510.69;5032350;28;20156;-68
2023/03/10 02:17:27;;;;;;;25.97;21.13;;;5.00;99.90;;;4.95;100.00;98517.72;5032456;28;20119;-68
2023/03/10 02:20:22;;;;;;;23.30;20.80;;;4.90;99.90;;;5.19;100.00;98509.34;5031163;28;20061;-68
2023/03/10 02:22:53;;;;;;;22.83;20.10;;;5.10;99.90;;;5.40;100.00;98522.03;5030845;28;20050;-68
2023/03/10 02:25:35;;;;;;;21.67;18.67;;;5.30;99.90;;;5.49;100.00;98512.19;5032396;28;20172;-68
2023/03/10 02:28:05;;;;;;;21.10;18.37;;;5.40;99.90;;;5.59;100.00;98515.47;5031221;28;20546;-68
2023/03/10 02:30:38;;;;;;;20.92;18.73;;;5.50;99.90;;;5.64;100.00;98504.88;5032523;28;20432;-68
2023/03/10 02:33:11;;;;;;;21.30;18.87;;;5.60;99.90;;;5.63;100.00;98501.41;5031272;28;20504;-68
2023/03/10 02:35:40;;;;;;;20.67;18.48;;;5.60;99.90;;;5.45;100.00;98499.19;5032416;28;20056;-68
2023/03/10 02:38:12;;;;;;;19.33;17.30;;;5.50;99.90;;;5.48;100.00;98486.00;5031147;28;20053;-68
2023/03/10 02:40:46;;;;;;;21.47;19.17;;;5.50;99.90;;;5.59;100.00;98499.75;5031009;28;20084;-68
2023/03/10 02:43:28;;;;;;;19.37;17.07;;;5.50;99.90;;;5.53;100.00;98496.38;5031048;28;20064;-68
2023/03/10 02:46:05;;;;;;;19.38;17.20;;;5.50;99.90;;;5.43;100.00;98490.50;5033491;28;20128;-68
2023/03/10 02:48:38;;;;;;;19.87;17.77;;;5.40;99.90;;;5.41;100.00;98492.28;5034552;28;20091;-68
2023/03/10 02:51:16;;;;;;;22.00;18.83;;;5.40;99.90;;;5.47;100.00;98479.06;5034557;28;20046;-68
2023/03/10 02:53:45;;;;;;;20.80;18.60;;;5.40;99.90;;;5.53;100.00;98490.25;5034547;28;20073;-68
2023/03/10 02:56:14;;;;;;;19.93;17.83;;;5.50;99.90;;;5.48;100.00;98499.97;5035603;28;20052;-68
2023/03/10 02:58:46;;;;;;;22.20;18.48;;;5.50;99.90;;;5.42;100.00;98488.75;5034375;28;20159;-68
2023/03/10 03:01:14;;;;;;;19.80;17.70;;;5.40;99.90;;;5.53;100.00;98492.84;5035552;28;20852;-68
2023/03/10 03:03:43;;;;;;;20.43;17.97;;;5.50;99.90;;;5.50;100.00;98476.34;5035815;28;20045;-68
2023/03/10 03:06:13;;;;;;;19.60;17.37;;;5.50;99.90;;;5.51;100.00;98478.09;5035847;28;20408;-68
2023/03/10 03:08:41;;;;;;;20.53;18.37;;;5.50;99.90;;;5.55;100.00;98471.88;5035009;28;20084;-68
2023/03/10 03:11:13;;;;;;;19.70;17.60;;;5.50;99.90;;;5.60;100.00;98488.34;5033154;28;20052;-68
2023/03/10 03:13:42;;;;;;;21.40;18.70;;;5.50;99.90;;;5.67;100.00;98473.34;5033805;28;20167;-68
2023/03/10 03:16:13;;;;;;;22.85;19.73;;;5.60;99.90;;;5.52;100.00;98469.31;5034933;28;20041;-68
2023/03/10 03:18:43;;;;;;;22.80;20.17;;;5.60;99.90;;;5.56;100.00;98472.72;5034018;28;20049;-68
2023/03/10 03:21:16;;;;;;;23.05;19.88;;;5.60;99.90;;;5.63;100.00;98467.31;5034031;28;20049;-68
2023/03/10 03:23:47;;;;;;;22.90;19.53;;;5.60;99.90;;;5.53;100.00;98463.19;5033194;28;20133;-67
2023/03/10 03:26:20;;;;;;;22.60;19.35;;;5.60;99.90;;;5.64;100.00;98473.41;5033900;28;20140;-68
2023/03/10 03:28:51;;;;;;;22.63;19.63;;;5.60;99.90;;;5.63;100.00;98467.31;5035107;28;20057;-68
2023/03/10 03:31:26;;;;;;;24.07;20.70;;;5.60;99.90;;;5.68;100.00;98481.16;5034118;28;20531;-68
2023/03/10 03:34:09;;;;;;;24.67;19.97;;;5.60;99.90;;;5.70;100.00;98474.13;5033886;28;20516;-68
2023/03/10 03:36:38;;;;;;;25.67;21.27;;;5.70;99.90;;;5.73;100.00;98476.66;5015177;28;20049;-68
2023/03/10 03:39:09;;;;;;;22.50;19.52;;;5.70;99.90;;;5.75;100.00;98480.13;5015048;28;20045;-68
2023/03/10 03:41:39;;;;;;;24.77;19.43;;;5.70;99.90;;;5.71;100.00;98499.44;5013647;28;20052;-67
2023/03/10 03:44:10;;;;;;;23.58;19.77;;;5.70;99.90;;;5.76;100.00;98481.84;5030031;28;20221;-68
2023/03/10 03:46:40;;;;;;;20.37;17.90;;;5.70;99.90;;;5.75;100.00;98474.88;5014457;28;20416;-67
2023/03/10 03:49:09;;;;;;;20.58;18.10;;;5.70;99.90;;;5.73;100.00;98467.97;5013470;28;20057;-67
2023/03/10 03:51:38;;;;;;;19.70;17.60;;;5.70;99.90;;;5.78;100.00;98474.81;5013389;28;20089;-67
2023/03/10 03:54:07;;;;;;;19.00;16.73;;;5.70;99.90;;;5.65;100.00;98448.94;5012977;28;20152;-68
2023/03/10 03:56:37;;;;;;;19.20;16.93;;;5.60;99.90;;;5.63;100.00;98450.72;5013274;28;20469;-67
2023/03/10 03:59:07;;;;;;;19.07;16.60;;;5.60;99.90;;;5.60;100.00;98435.03;5012584;28;20371;-68
2023/03/10 04:01:36;;;;;;;19.07;16.80;;;5.60;99.90;;;5.56;100.00;98428.16;5013157;28;20072;-67
2023/03/10 04:04:07;;;;;;;17.77;15.88;;;5.50;99.90;;;5.59;100.00;98443.81;5014624;28;20088;-67
2023/03/10 04:06:36;;;;;;;;;;;5.50;99.90;;;5.53;100.00;98457.94;5014883;28;20049;-67
2023/03/10 04:09:09;;;;;;;;;;;5.50;99.90;;;5.43;100.00;98452.06;5030116;28;20303;-67
2023/03/10 04:11:38;;;;;;;19.53;17.23;;;5.50;99.90;;;5.27;100.00;98442.81;5029187;28;20303;-67
2023/03/10 04:14:07;;;;;;;19.97;17.53;;;5.40;99.90;;;5.37;100.00;98454.81;5012936;28;20046;-67
2023/03/10 04:16:35;;;;;;;20.43;17.90;;;5.30;99.90;;;5.45;100.00;98449.38;5013536;28;20137;-68
2023/03/10 04:19:06;;;;;;;21.02;17.80;;;5.40;99.90;;;5.49;100.00;98445.81;5029876;28;20404;-68
2023/03/10 04:21:40;;;;;;;21.90;19.47;;;5.40;99.90;;;5.49;100.00;98457.16;5029632;28;20481;-67
2023/03/10 04:24:09;;;;;;;22.55;18.52;;;5.50;99.90;;;5.45;100.00;98444.16;5031675;28;20588;-67
2023/03/10 04:26:38;;;;;;;25.73;21.57;;;5.50;99.90;;;5.48;100.00;98444.06;5032993;28;20037;-67
2023/03/10 04:29:07;;;;;;;25.17;20.90;;;5.50;99.90;;;5.50;100.00;98477.22;5032913;28;20096;-67
2023/03/10 04:31:38;;;;;;;25.83;20.60;;;5.50;99.90;;;5.57;100.00;98456.09;5034183;28;20059;-67
2023/03/10 04:34:09;;;;;;;27.55;21.13;;;5.50;99.90;;;5.56;100.00;98454.38;5032933;28;20050;-68
2023/03/10 04:36:40;;;;;;;28.63;20.90;;;5.50;99.90;;;5.32;100.00;98434.84;5032000;28;20140;-68
2023/03/10 04:39:09;;;;;;;25.65;19.98;;;5.40;99.90;;;5.46;100.00;98457.22;5032621;28;20127;-67
2023/03/10 04:41:38;;;;;;;26.57;20.70;;;5.40;99.90;;;5.41;100.00;98460.84;5032753;28;20567;-67
2023/03/10 04:44:07;;;;;;;26.97;21.37;;;5.40;99.90;;;5.39;100.00;98460.00;5032522;28;20056;-67
2023/03/10 04:46:52;;;;;;;29.70;22.00;;;5.40;99.90;;;5.35;100.00;98445.25;5032765;28;20060;-67
2023/03/10 04:49:21;;;;;;;26.50;20.83;;;5.40;99.90;;;5.35;100.00;98434.75;5031728;28;20378;-67
2023/03/10 04:51:50;;;;;;;25.03;20.83;;;5.30;99.90;;;5.38;100.00;98425.06;5032873;28;20136;-67
2023/03/10 04:54:19;;;;;;;28.58;20.92;;;5.40;99.90;;;5.31;100.00;98438.34;5032462;28;20053;-67
2023/03/10 04:56:48;;;;;;;26.27;20.47;;;5.40;99.90;;;5.26;100.00;98427.13;5032409;28;20037;-67
2023/03/10 04:59:20;;;;;;;24.40;19.43;;;5.30;99.90;;;5.27;100.00;98434.06;5032391;28;20053;-67
2023/03/10 05:01:51;;;;;;;24.50;19.90;;;5.30;99.90;;;5.34;100.00;98443.53;5032610;28;20073;-67
2023/03/10 05:04:20;;;;;;;25.40;19.67;;;5.30;99.90;;;5.28;100.00;98436.66;5032350;28;20038;-67
2023/03/10 05:06:52;;;;;;;24.67;20.27;;;5.30;99.90;;;5.23;100.00;98437.66;5031773;28;20103;-67
2023/03/10 05:09:28;;;;;;;25.03;19.17;;;5.20;99.90;;;5.19;100.00;98428.13;5030511;28;20053;-67
2023/03/10 05:11:57;;;;;;;23.77;18.77;;;5.20;99.90;;;5.06;100.00;98432.81;5032017;28;20057;-67
2023/03/10 05:14:28;;;;;;;25.13;18.37;;;5.10;99.90;;;5.12;100.00;98437.91;5031772;28;20081;-67
2023/03/10 05:16:57;;;;;;;24.60;18.67;;;5.10;99.90;;;5.07;100.00;98431.06;5031643;28;20049;-67
2023/03/10 05:19:27;;;;;;;23.83;19.07;;;5.10;99.90;;;5.06;100.00;98427.56;5031972;28;20049;-67
2023/03/10 05:21:59;;;;;;;23.60;18.40;;;5.10;99.90;;;5.17;100.00;98433.41;5030953;28;20052;-67
2023/03/10 05:24:28;;;;;;;28.40;20.15;;;5.10;99.90;;;4.99;100.00;98422.50;5031748;28;20132;-67
2023/03/10 05:26:56;;;;;;;27.10;19.27;;;5.00;99.90;;;5.06;100.00;98434.56;5032064;28;20049;-67
2023/03/10 05:29:25;;;;;;;23.30;18.60;;;5.00;99.90;;;5.03;100.00;98432.00;5032079;28;20148;-67
2023/03/10 05:31:59;;;;;;;25.33;18.77;;;5.00;99.90;;;5.07;100.00;98431.06;5031851;28;20076;-67
2023/03/10 05:34:32;;;;;;;24.97;18.27;;;5.00;99.90;;;5.11;100.00;98445.81;5031714;28;20057;-67
2023/03/10 05:37:05;;;;;;;24.37;17.73;;;5.00;99.90;;;5.21;100.00;98442.06;5032982;28;20057;-67
2023/03/10 05:39:34;;;;;;;24.10;18.77;;;5.10;99.90;;;5.20;100.00;98438.59;5030956;28;20404;-67
2023/03/10 05:42:08;;;;;;;25.37;18.90;;;5.20;99.90;;;5.27;100.00;98447.16;5031634;28;20072;-67
2023/03/10 05:44:37;;;;;;;24.50;18.10;;;5.20;99.90;;;5.15;100.00;98437.00;5031793;28;20381;-67
2023/03/10 05:47:07;;;;;;;24.58;18.58;;;5.10;99.90;;;4.88;100.00;98419.25;5032693;28;20054;-67
2023/03/10 05:49:36;;;;;;;24.43;18.17;;;5.10;99.90;;;5.14;100.00;98440.50;5031261;28;20053;-67
2023/03/10 05:52:09;;;;;;;26.17;18.70;;;5.10;99.90;;;5.11;100.00;98440.56;5030796;28;20049;-67
2023/03/10 05:54:39;;;;;;;24.77;17.70;;;5.10;99.90;;;5.19;100.00;98443.84;5031186;28;20054;-67
2023/03/10 05:57:09;;;;;;;25.17;18.23;;;5.10;99.90;;;5.10;100.00;98441.44;5031067;28;20053;-67
2023/03/10 05:59:41;;;;;;;26.90;18.50;;;5.10;99.90;;;5.20;100.00;98437.75;5032172;28;20444;-67
2023/03/10 06:02:10;;;;;;;26.20;17.30;;;5.10;99.90;;;5.15;100.00;98437.00;5030943;28;20555;-67
2023/03/10 06:04:38;;;;;;;22.43;16.27;;;5.10;99.90;;;5.09;100.00;98431.88;5031448;28;20041;-67
2023/03/10 06:07:07;;;;;;;21.17;16.77;;;5.20;99.90;;;5.11;100.00;98430.09;5032037;28;20045;-67
2023/03/10 06:09:36;;;;;;;25.03;15.80;;;5.10;99.90;;;5.05;100.00;98431.06;5030995;28;20136;-67
2023/03/10 06:12:06;;;;;;;19.65;15.55;;;5.10;99.90;;;4.96;100.00;98431.28;5032207;28;20125;-67
2023/03/10 06:14:34;;;;;;;21.53;15.10;;;5.00;99.90;;;5.13;100.00;98444.03;5031942;28;20045;-67
2023/03/10 06:17:03;;;;;;;21.03;15.27;;;5.10;99.90;;;5.12;100.00;98451.00;5030815;28;20049;-68
2023/03/10 06:19:31;;;;;;;21.17;15.40;;;5.10;99.90;;;4.99;100.00;98456.53;5012286;28;20104;-68
2023/03/10 06:21:59;;;;;;;20.40;16.27;;;5.00;99.90;;;5.15;100.00;98461.41;5015306;28;20057;-68
2023/03/10 06:24:29;;;;;;;20.50;15.50;;;5.10;99.90;;;5.21;100.00;98444.69;5015209;28;20050;-68
2023/03/10 06:26:59;;;;;;;17.45;14.57;;;5.20;99.90;;;5.24;100.00;98444.63;5031277;28;20065;-68
2023/03/10 06:29:27;;;;;;;18.88;14.18;;;5.20;99.90;;;5.21;100.00;98437.69;5015128;28;20072;-68
2023/03/10 06:31:56;;;;;;;18.10;14.20;;;5.20;99.90;;;5.10;100.00;98417.88;5014683;28;20088;-68
2023/03/10 06:34:24;;;;;;;15.77;13.50;;;5.30;99.90;;;5.30;100.00;98436.63;5016437;28;20240;-68
2023/03/10 06:36:54;;;;;;;14.47;12.50;;;5.30;99.90;;;5.28;100.00;98443.66;5016099;28;20038;-68
2023/03/10 06:39:23;;;;;;;16.17;12.68;;;5.20;99.90;;;5.21;100.00;98452.53;5016106;28;20119;-68
2023/03/10 06:41:54;;;;;;;15.47;13.00;;;5.20;99.90;;;5.21;100.00;98448.19;5015149;28;20110;-68
2023/03/10 06:44:24;;;;;;;15.33;12.70;;;5.20;99.90;;;5.17;100.00;98450.88;5014836;28;20540;-68
2023/03/10 06:46:53;;;;;;;15.10;12.25;;;5.20;99.90;;;5.19;100.00;98456.94;5016642;28;20165;-68
2023/03/10 06:49:21;;;;;;;15.47;13.00;;;5.20;99.90;;;5.22;100.00;98446.44;5031444;28;20116;-68
2023/03/10 06:51:50;;;;;;;13.83;11.57;;;5.20;99.90;;;5.18;100.00;98442.16;5016226;28;20046;-68
2023/03/10 06:54:19;;;;;;;15.90;12.83;;;5.20;99.90;;;5.14;100.00;98450.97;5015806;28;20133;-69
2023/03/10 06:56:47;;;;;;;15.90;12.63;;;5.10;99.90;;;5.09;100.00;98451.06;5015717;28;20050;-69
2023/03/10 06:59:16;;;;;;;14.17;11.97;;;5.10;99.90;;;5.19;100.00;98451.72;5016028;28;20136;-69
2023/03/10 07:01:46;;;;;;;14.17;11.83;;;5.10;99.90;;;5.06;100.00;98452.88;5016167;28;20120;-69
2023/03/10 07:04:14;;;;;;;14.70;12.05;;;5.20;99.90;;;5.32;100.00;98443.53;5015891;28;20038;-69
2023/03/10 07:06:43;;;;;;;15.07;12.10;;;5.20;99.90;;;5.36;100.00;98447.81;5015820;28;20042;-69
2023/03/10 07:09:11;;;;;;;14.10;11.93;;;5.30;99.90;;;5.37;100.00;98443.44;5015349;28;20069;-69
2023/03/10 07:11:40;;;;;;;13.50;11.10;;;5.30;99.90;;;5.30;100.00;98436.63;5016093;28;20038;-69
2023/03/10 07:14:08;;;;;;;16.03;11.83;;;5.30;99.90;;;5.23;100.00;98445.50;5015655;28;20041;-69
2023/03/10 07:16:39;;;;;;;13.37;10.57;;;5.20;99.90;;;4.94;100.00;98406.00;5014386;28;20045;-69
2023/03/10 07:19:09;;;;;;;12.83;10.97;;;5.20;99.90;;;5.19;100.00;98441.25;5015743;28;20421;-70
2023/03/10 07:21:40;;;;;;;12.57;10.20;;;5.10;99.90;;;5.24;100.00;98450.75;5015107;28;20072;-69
2023/03/10 07:24:08;;;;;;;12.77;10.80;;;5.20;99.90;;;5.30;100.00;98449.75;5015856;28;20042;-69
2023/03/10 07:26:37;;;;;;;13.00;10.73;;;5.30;99.90;;;5.33;100.00;98447.03;5015378;28;20042;-69
2023/03/10 07:29:06;;;;;;;11.73;10.53;;;5.30;99.90;;;5.39;100.00;98453.00;5015829;28;20072;-69
2023/03/10 07:31:35;;;;;;;10.93;9.40;;;5.40;99.90;;;5.40;100.00;98446.03;5015262;28;20046;-69
2023/03/10 07:34:03;;;;;;;11.40;9.93;;;5.40;99.90;;;5.34;100.00;98447.00;5015077;28;20064;-69
2023/03/10 07:36:33;;;;;;;10.77;9.67;;;5.30;99.90;;;5.35;100.00;98458.34;5014788;28;20050;-69
2023/03/10 07:39:02;;;;;;;10.43;9.10;;;5.30;99.90;;;5.38;100.00;98456.50;5015250;28;20070;-69
2023/03/10 07:41:30;;;;;;;10.70;9.60;;;5.30;99.90;;;5.34;100.00;98459.25;5030422;28;20042;-69
2023/03/10 07:43:58;;;;;;;11.53;9.43;;;5.30;99.90;;;5.44;100.00;98463.38;5015209;28;20042;-69
2023/03/10 07:46:27;;;;;;;10.80;9.70;;;5.40;99.90;;;5.39;100.00;98462.63;5014692;28;20516;-69
2023/03/10 07:48:58;;;;;;;11.60;10.40;;;5.40;99.90;;;5.21;100.00;98436.81;5013302;28;20408;-66
2023/03/10 07:51:28;;;;;;;10.33;9.33;;;5.40;99.90;;;5.43;100.00;98464.28;5014685;28;20060;-69
2023/03/10 07:53:58;;;;;;;11.47;10.30;;;5.40;99.90;;;5.49;100.00;98462.41;5014620;28;20096;-69
2023/03/10 07:56:26;;;;;;;11.15;10.05;;;5.50;99.90;;;5.56;100.00;98470.97;5013437;28;20289;-69
2023/03/10 07:58:55;;;;;;;12.50;10.53;;;5.50;99.90;;;5.57;100.00;98471.84;5029763;28;20120;-69
2023/03/10 08:01:23;;;;;;;11.40;10.30;;;5.50;99.90;;;5.53;100.00;98468.44;5014476;28;20088;-66
2023/03/10 08:03:52;;;;;;;12.07;10.67;;;5.50;99.90;;;5.38;100.00;98453.91;5030898;28;20050;-68
2023/03/10 08:06:27;;;;;;;11.27;9.70;;;5.50;99.90;;;5.40;100.00;98467.00;5034077;28;20082;-68
2023/03/10 08:08:57;;;;;;;10.77;9.67;;;5.40;99.90;;;5.33;100.00;98479.34;5033340;28;20057;-67
2023/03/10 08:11:26;;;;;;;12.10;10.73;;;5.40;99.90;;;5.25;100.00;98470.78;5049611;28;20502;-68
2023/03/10 08:13:55;;;;;;;12.97;11.33;;;5.30;99.90;;;5.20;100.00;98470.03;5034489;28;20075;-66
2023/03/10 08:16:25;;;;;;;11.83;10.03;;;5.20;99.90;;;5.19;100.00;98442.09;5033437;28;20054;-66
2023/03/10 08:18:54;;;;;;;11.43;9.52;;;5.30;99.90;;;5.43;100.00;98478.25;5034084;28;20049;-65
2023/03/10 08:21:22;;;;;;;12.67;10.37;;;5.40;99.90;;;5.49;100.00;98467.63;5033955;28;20038;-65
2023/03/10 08:23:50;;;;;;;12.13;10.93;;;5.50;99.90;;;5.29;100.00;98455.88;5033894;28;20049;-66
2023/03/10 08:26:21;;;;;;;11.30;10.07;;;5.40;99.90;;;5.27;100.00;98444.56;5033645;28;20045;-71
2023/03/10 08:28:49;;;;;;;10.95;9.85;;;5.40;99.90;;;5.40;100.00;98477.47;5028644;28;20046;-69
2023/03/10 08:31:20;;;;;;;12.47;10.30;;;5.40;99.90;;;5.14;100.00;98443.09;5014171;28;20037;-70
2023/03/10 08:33:49;;;;;;;11.83;10.33;;;5.30;99.90;;;5.30;100.00;98473.31;5013964;28;20049;-68
2023/03/10 08:36:21;;;;;;;11.67;10.47;;;5.30;99.90;;;5.25;100.00;98483.03;5013751;28;20493;-68
2023/03/10 08:38:51;;;;;;;10.90;9.80;;;5.30;99.90;;;5.19;100.00;98472.66;5014068;28;20053;-67
2023/03/10 08:41:25;;;;;;;10.80;9.70;;;5.20;99.90;;;5.16;100.00;98485.84;5023328;28;20044;-69
2023/03/10 08:43:55;;;;;;;11.20;9.87;;;5.20;99.90;;;5.07;100.00;98481.66;5032706;28;20053;-67
2023/03/10 08:46:25;;;;;;;;;;;5.10;99.90;;;4.89;100.00;98492.53;5033916;28;20041;-70
2023/03/10 08:48:55;;;;;;;10.90;9.80;;;4.90;99.90;;;5.03;100.00;98484.41;5033738;28;19932;-69
2023/03/10 08:51:24;;;;;;;11.87;10.63;;;5.00;99.90;;;5.11;100.00;98487.72;5032275;28;20037;-69
2023/03/10 08:53:54;;;;;;;11.70;10.17;;;5.10;99.90;;;5.09;100.00;98500.81;5031458;28;20505;-68
2023/03/10 08:56:24;;;;;;;11.67;9.80;;;5.10;99.90;;;5.25;100.00;98506.59;5033636;28;20049;-71
2023/03/10 08:58:57;;;;;;;11.30;9.87;;;5.20;99.90;;;5.37;100.00;98507.22;5033472;28;20304;-69
2023/03/10 09:01:29;;;;;;;10.60;9.47;;;5.30;99.90;;;5.21;100.00;98474.38;5033316;28;20481;-65
2023/03/10 09:03:58;;;;;;;11.47;10.27;;;5.40;99.90;;;5.38;100.00;98490.59;5033194;28;20042;-67
2023/03/10 09:06:27;;;;;;;11.67;10.10;;;5.40;99.90;;;5.46;100.00;98507.00;5032331;28;20449;-68
2023/03/10 09:08:55;;;;;;;10.10;9.10;;;5.50;99.90;;;5.49;100.00;98504.34;5033405;28;20053;-68
2023/03/10 09:11:28;;;;;;;11.37;10.07;;;5.50;99.90;;;5.45;100.00;98502.69;5032057;28;20500;-67
2023/03/10 09:13:57;;;;;;;9.57;8.70;;;5.50;99.90;;;5.57;100.00;98501.53;5032554;28;20037;-68
2023/03/10 09:16:27;;;;;;;9.63;8.73;;;5.50;99.90;;;5.50;100.00;98497.31;5032228;28;20049;-67
2023/03/10 09:18:56;;;;;;;10.05;8.25;;;5.50;99.90;;;5.55;100.00;98507.69;5032284;28;20049;-67
2023/03/10 09:21:26;;;;;;;9.03;8.23;;;5.50;99.90;;;5.50;100.00;98502.56;5012291;28;20080;-69
2023/03/10 09:23:55;;;;;;;9.65;8.68;;;5.50;99.90;;;5.57;100.00;98504.16;5027423;28;20085;-68
2023/03/10 09:26:25;;;;;;;8.67;7.90;;;5.50;99.90;;;5.13;100.00;98439.63;5012375;28;20125;-68
2023/03/10 09:28:53;;;;;;;9.73;8.82;;;5.50;99.90;;;5.53;100.00;98500.72;5011890;28;20044;-66
2023/03/10 09:31:30;;;;;;;8.20;7.40;;;5.50;99.90;;;5.53;100.00;98505.13;5012314;28;20052;-68
2023/03/10 09:33:59;;;;;;;8.70;7.93;;;5.50;99.90;;;5.47;100.00;98508.75;5011321;28;20050;-67
2023/03/10 09:36:29;;;;;;;8.23;7.53;;;5.50;99.90;;;5.41;100.00;98489.66;5012199;28;20057;-68
2023/03/10 09:38:59;;;;;;;8.43;7.72;;;5.50;99.90;;;5.53;100.00;98518.22;5027617;28;20436;-67
2023/03/10 09:42:12;;;;;;;8.03;7.33;;;5.50;99.90;;;5.54;100.00;98514.69;5012497;28;20540;-67
2023/03/10 09:44:49;;;;;;;7.77;7.00;;;5.50;99.90;;;5.50;100.00;98507.78;5027537;28;20049;-70
2023/03/10 09:47:28;;;;;;;7.77;7.07;;;5.50;99.90;;;5.55;100.00;98544.41;5012529;28;20046;-67
2023/03/10 09:50:16;;;;;;;7.90;7.20;;;5.50;99.90;;;5.58;100.00;98525.97;5012029;28;20046;-68
2023/03/10 09:52:55;;;;;;;7.80;7.10;;;5.50;99.90;;;5.50;100.00;98518.28;5011804;28;20038;-67
2023/03/10 09:55:28;;;;;;;8.87;8.10;;;5.50;99.90;;;5.56;100.00;98533.00;5011588;28;20104;-68
2023/03/10 09:57:58;;;;;;;8.60;7.80;;;5.60;99.90;;;5.47;100.00;98513.13;5011690;28;20105;-67
2023/03/10 10:00:37;;;;;;;7.60;6.90;;;5.60;99.90;;;5.45;100.00;98526.25;5011731;28;20153;-67
2023/03/10 10:03:15;;;;;;;8.30;7.60;;;5.50;99.90;;;5.46;100.00;98534.97;5011742;28;20076;-66
2023/03/10 10:05:45;;;;;;;8.07;7.37;;;5.50;99.90;;;5.49;100.00;98542.78;5012074;28;20056;-67
2023/03/10 10:08:21;;;;;;;7.35;6.75;;;5.50;99.90;;;5.34;100.00;98550.97;5026641;28;20085;-67
2023/03/10 10:10:53;;;;;;;7.23;6.53;;;5.40;99.90;;;5.30;100.00;98534.44;5011917;28;20489;-67
2023/03/10 10:13:26;;;;;;;8.00;7.37;;;5.40;99.90;;;5.20;100.00;98537.28;5011599;28;20045;-67
2023/03/10 10:16:04;;;;;;;8.20;7.50;;;5.40;99.90;;;5.32;100.00;98571.94;5011660;28;20069;-67
2023/03/10 10:19:02;;;;;;;8.03;7.33;;;5.30;99.90;;;5.32;100.00;98560.63;5011925;28;20049;-67
2023/03/10 10:21:42;;;;;;;8.30;7.60;;;5.30;99.90;;;5.44;100.00;98565.59;5011558;28;20551;-67
2023/03/10 10:24:10;;;;;;;7.10;6.60;;;5.40;99.90;;;5.46;100.00;98569.03;5011589;28;20104;-67
2023/03/10 10:26:39;;;;;;;6.83;6.23;;;5.50;99.90;;;5.41;100.00;98570.91;5011860;28;20073;-67
2023/03/10 10:29:18;;;;;;;7.47;6.77;;;5.40;99.90;;;5.04;100.00;98507.06;5010605;28;20076;-67
2023/03/10 10:32:05;;;;;;;7.30;6.70;;;5.40;99.90;;;5.44;100.00;98565.59;5012096;28;20148;-67